Time;durP1;ratioP1;P1;durP2;ratioP2;P2;SDS_P1;SDS_P2;PMS_P1;PMS_P2;Temp;Humidity;BMP_temperature;BMP_pressure;BME280_temperature;BME280_humidity;BME280_pressure;Samples;Min_cycle;Max_cycle;Signal;HPM_P1;HPM_P2
2023/05/07 00:00:31;;;;;;;36.65;25.15;;;;;;;22.20;49.27;101727.59;5023229;28;20762;-43
2023/05/07 00:02:58;;;;;;;37.20;24.27;;;;;;;22.18;49.12;101727.75;5024212;28;20131;-43
2023/05/07 00:05:24;;;;;;;41.17;25.55;;;;;;;22.17;49.26;101728.75;5025639;28;20348;-43
2023/05/07 00:07:52;;;;;;;38.40;24.92;;;;;;;22.15;49.03;101724.50;5018154;28;20078;-43
2023/05/07 00:10:19;;;;;;;38.38;25.42;;;;;;;22.15;49.47;101727.22;5020443;28;20092;-43
2023/05/07 00:12:45;;;;;;;39.00;24.38;;;;;;;22.13;49.33;101727.38;5021759;28;20127;-43
2023/05/07 00:15:12;;;;;;;37.67;24.48;;;;;;;22.12;49.24;101724.81;5024354;28;20049;-43
2023/05/07 00:17:39;;;;;;;36.70;24.45;;;;;;;22.11;49.10;101726.69;5022606;28;21233;-44
2023/05/07 00:20:07;;;;;;;37.58;24.80;;;;;;;22.10;49.21;101724.13;5022572;28;20053;-44
2023/05/07 00:22:33;;;;;;;36.67;24.88;;;;;;;22.09;49.01;101725.97;5021689;28;20080;-43
2023/05/07 00:25:00;;;;;;;38.50;23.63;;;;;;;22.09;48.93;101720.56;5024631;28;20072;-43
2023/05/07 00:27:27;;;;;;;37.28;23.92;;;;;;;22.07;49.28;101716.31;5022532;28;20191;-42
2023/05/07 00:29:53;;;;;;;35.72;23.92;;;;;;;22.07;48.96;101721.72;5022180;28;20057;-43
2023/05/07 00:32:20;;;;;;;39.00;25.25;;;;;;;22.06;49.25;101728.97;5023229;28;20053;-44
2023/05/07 00:34:46;;;;;;;35.92;23.90;;;;;;;22.06;49.09;101733.53;5024329;28;20051;-43
2023/05/07 00:37:13;;;;;;;34.33;23.75;;;;;;;22.03;49.28;101718.53;5022143;28;20042;-42
2023/05/07 00:39:39;;;;;;;36.10;23.65;;;;;;;22.02;49.31;101726.75;5024985;28;20053;-44
2023/05/07 00:42:06;;;;;;;37.08;23.38;;;;;;;22.00;49.08;101721.53;5025559;28;20807;-43
2023/05/07 00:44:32;;;;;;;35.30;23.58;;;;;;;22.00;49.21;101720.69;5024812;28;20065;-43
2023/05/07 00:47:03;;;;;;;34.20;22.50;;;;;;;21.99;49.25;101725.25;5023460;28;20042;-43
2023/05/07 00:49:39;;;;;;;33.72;22.90;;;;;;;21.98;49.41;101722.69;5028186;28;20455;-42
2023/05/07 00:52:07;;;;;;;35.08;22.92;;;;;;;21.97;48.92;101727.25;5025815;28;20129;-43
2023/05/07 00:54:35;;;;;;;35.28;23.02;;;;;;;21.96;49.16;101730.97;5028006;28;20053;-43
2023/05/07 00:57:03;;;;;;;33.80;22.88;;;;;;;21.96;49.03;101727.41;5026884;28;20042;-42
2023/05/07 00:59:32;;;;;;;31.63;21.65;;;;;;;21.95;49.17;101729.28;5024219;28;20158;-43
2023/05/07 01:01:59;;;;;;;34.78;23.73;;;;;;;21.93;49.13;101724.00;5023365;28;20045;-43
2023/05/07 01:04:26;;;;;;;33.55;22.45;;;;;;;21.93;49.27;101725.88;5024474;28;20123;-43
2023/05/07 01:06:58;;;;;;;33.00;21.75;;;;;;;21.91;49.17;101726.03;5022950;28;20050;-43
2023/05/07 01:09:26;;;;;;;35.90;22.05;;;;;;;21.90;49.30;101727.00;5021980;28;20067;-43
2023/05/07 01:11:53;;;;;;;33.63;21.98;;;;;;;21.90;49.28;101729.72;5021661;28;20049;-43
2023/05/07 01:14:20;;;;;;;34.10;22.88;;;;;;;21.89;49.08;101719.94;5024067;28;20068;-43
2023/05/07 01:16:48;;;;;;;31.63;21.80;;;;;;;21.88;48.97;101722.81;5022834;28;20433;-43
2023/05/07 01:19:17;;;;;;;30.42;21.08;;;;;;;21.86;49.14;101722.94;5022065;28;20429;-43
2023/05/07 01:21:47;;;;;;;33.58;21.70;;;;;;;21.85;49.30;101717.72;5024126;28;20357;-43
2023/05/07 01:24:14;;;;;;;33.13;21.98;;;;;;;21.85;49.18;101712.31;5022663;28;20137;-42
2023/05/07 01:26:42;;;;;;;32.45;21.25;;;;;;;21.83;49.29;101709.78;5021880;28;20353;-42
2023/05/07 01:29:09;;;;;;;34.10;21.25;;;;;;;21.83;49.13;101708.91;5022781;28;20441;-43
2023/05/07 01:31:37;;;;;;;32.90;21.75;;;;;;;21.81;49.53;101706.38;5021873;28;20382;-42
2023/05/07 01:34:06;;;;;;;33.10;21.13;;;;;;;21.80;49.09;101707.38;5024229;28;20057;-42
2023/05/07 01:36:33;;;;;;;30.55;20.60;;;;;;;21.80;49.13;101703.84;5020012;28;20045;-44
2023/05/07 01:39:00;;;;;;;28.50;19.83;;;;;;;21.78;49.28;101701.28;5023758;28;20050;-42
2023/05/07 01:41:27;;;;;;;28.27;19.45;;;;;;;21.77;49.18;101709.56;5020626;28;20045;-42
2023/05/07 01:43:56;;;;;;;30.63;19.92;;;;;;;21.77;49.16;101706.84;5024609;28;20046;-41
2023/05/07 01:46:23;;;;;;;29.73;20.10;;;;;;;21.76;49.33;101702.47;5023750;28;20045;-42
2023/05/07 01:48:50;;;;;;;29.80;20.30;;;;;;;21.75;49.53;101693.53;5023899;28;20054;-41
2023/05/07 01:51:17;;;;;;;29.88;20.30;;;;;;;21.75;49.26;101695.34;5022750;28;20063;-42
2023/05/07 01:53:45;;;;;;;32.75;19.92;;;;;;;21.74;49.30;101690.97;5021832;28;20115;-43
2023/05/07 01:56:12;;;;;;;29.27;18.48;;;;;;;21.71;49.35;101694.84;5024272;28;20046;-42
2023/05/07 01:58:38;;;;;;;29.45;20.10;;;;;;;21.72;49.44;101701.09;5023282;28;20064;-41
2023/05/07 02:01:05;;;;;;;29.35;19.88;;;;;;;21.70;49.36;101695.84;5022282;28;20041;-42
2023/05/07 02:03:31;;;;;;;30.95;20.35;;;;;;;21.71;49.50;101702.06;5022555;28;20083;-42
2023/05/07 02:05:58;;;;;;;28.13;18.20;;;;;;;21.69;49.15;101688.75;5022889;28;20080;-42
2023/05/07 02:08:25;;;;;;;29.52;18.98;;;;;;;21.67;49.51;101691.63;5023963;28;20333;-42
2023/05/07 02:10:51;;;;;;;27.35;18.52;;;;;;;21.68;49.63;101695.16;5021813;28;20524;-42
2023/05/07 02:13:19;;;;;;;28.25;18.77;;;;;;;21.66;49.57;101695.28;5021276;28;20057;-42
2023/05/07 02:15:50;;;;;;;27.25;18.10;;;;;;;21.66;49.43;101691.75;5022143;28;20053;-41
2023/05/07 02:18:16;;;;;;;27.65;18.13;;;;;;;21.64;49.32;101693.78;5021045;28;20057;-42
2023/05/07 02:20:43;;;;;;;26.27;17.83;;;;;;;21.64;49.29;101691.94;5024453;28;20045;-42
2023/05/07 02:23:10;;;;;;;24.45;16.83;;;;;;;21.63;49.35;101687.53;5024460;28;20060;-42
2023/05/07 02:25:36;;;;;;;27.55;18.20;;;;;;;21.63;49.61;101694.78;5021374;28;20425;-42
2023/05/07 02:28:03;;;;;;;25.27;17.20;;;;;;;21.62;49.49;101695.78;5023222;28;20124;-42
2023/05/07 02:30:29;;;;;;;26.65;17.10;;;;;;;21.61;49.36;101700.31;5020760;28;20049;-42
2023/05/07 02:32:56;;;;;;;24.52;16.73;;;;;;;21.59;49.50;101699.66;5020962;28;20357;-42
2023/05/07 02:35:24;;;;;;;26.63;18.10;;;;;;;21.60;49.42;101701.34;5023157;28;20071;-43
2023/05/07 02:37:51;;;;;;;25.33;17.45;;;;;;;21.59;49.44;101701.50;5020779;28;20132;-42
2023/05/07 02:40:17;;;;;;;25.08;17.40;;;;;;;21.59;49.52;101701.50;5021442;28;20064;-42
2023/05/07 02:42:44;;;;;;;25.45;17.15;;;;;;;21.59;49.34;101704.19;5021252;28;20128;-40
2023/05/07 02:45:11;;;;;;;25.48;17.48;;;;;;;21.57;49.71;101698.94;5021548;28;20445;-43
2023/05/07 02:47:37;;;;;;;30.75;17.23;;;;;;;21.57;49.26;101701.63;5021077;28;20051;-43
2023/05/07 02:50:04;;;;;;;23.55;15.60;;;;;;;21.56;49.65;101697.25;5022341;28;20136;-42
2023/05/07 02:52:31;;;;;;;22.65;15.88;;;;;;;21.55;49.49;101698.28;5020929;28;20059;-43
2023/05/07 02:54:58;;;;;;;24.45;16.40;;;;;;;21.55;49.48;101698.28;5023401;28;20050;-44
2023/05/07 02:57:24;;;;;;;22.67;15.77;;;;;;;21.54;49.31;101698.41;5027445;28;20049;-45
2023/05/07 02:59:51;;;;;;;24.98;16.20;;;;;;;21.54;49.36;101693.00;5022986;28;20100;-42
2023/05/07 03:02:18;;;;;;;24.30;16.98;;;;;;;21.53;49.49;101694.88;5018695;28;20049;-44
2023/05/07 03:04:45;;;;;;;24.65;16.48;;;;;;;21.52;49.51;101693.19;5018738;28;20148;-43
2023/05/07 03:07:11;;;;;;;25.83;16.95;;;;;;;21.51;49.42;101694.19;5020891;28;20664;-43
2023/05/07 03:09:38;;;;;;;23.58;16.13;;;;;;;21.51;49.42;101698.72;5022496;28;20068;-43
2023/05/07 03:12:04;;;;;;;22.95;15.80;;;;;;;21.50;49.10;101702.41;5021041;28;20111;-43
2023/05/07 03:14:31;;;;;;;24.73;16.77;;;;;;;21.50;49.65;101697.88;5020894;28;20049;-42
2023/05/07 03:16:57;;;;;;;23.17;15.70;;;;;;;21.49;49.50;101695.34;5021772;28;20050;-44
2023/05/07 03:19:24;;;;;;;22.92;14.65;;;;;;;21.47;49.31;101700.03;5017160;28;20437;-43
2023/05/07 03:21:50;;;;;;;21.70;14.75;;;;;;;21.48;49.26;101699.03;5018820;28;20467;-43
2023/05/07 03:24:17;;;;;;;22.83;15.23;;;;;;;21.48;49.31;101693.66;5019987;28;20326;-42
2023/05/07 03:26:44;;;;;;;23.17;15.23;;;;;;;21.44;49.51;101693.94;5021971;28;20045;-43
2023/05/07 03:29:10;;;;;;;21.33;14.85;;;;;;;21.44;49.70;101693.09;5023075;28;20132;-42
2023/05/07 03:31:37;;;;;;;21.60;15.27;;;;;;;21.43;49.35;101686.03;5021642;28;20054;-42
2023/05/07 03:34:04;;;;;;;22.75;15.32;;;;;;;21.42;49.73;101690.53;5019636;28;20761;-43
2023/05/07 03:36:30;;;;;;;23.77;14.65;;;;;;;21.41;49.62;101690.72;5021456;28;20046;-42
2023/05/07 03:38:57;;;;;;;21.30;15.25;;;;;;;21.41;49.60;101694.25;5019856;28;20069;-43
2023/05/07 03:41:23;;;;;;;19.48;13.75;;;;;;;21.41;49.69;101693.41;5021217;28;20041;-43
2023/05/07 03:43:50;;;;;;;19.75;13.93;;;;;;;21.41;49.27;101694.25;5021573;28;20057;-43
2023/05/07 03:46:16;;;;;;;21.45;14.48;;;;;;;21.40;49.57;101686.34;5020023;28;20041;-44
2023/05/07 03:48:43;;;;;;;20.20;14.27;;;;;;;21.39;49.73;101690.03;5019516;28;20080;-42
2023/05/07 03:51:10;;;;;;;18.98;12.48;;;;;;;21.39;49.76;101684.66;5019875;28;20050;-42
2023/05/07 03:53:36;;;;;;;19.13;13.50;;;;;;;21.38;49.27;101688.31;5021710;28;20053;-44
2023/05/07 03:56:03;;;;;;;18.23;13.00;;;;;;;21.37;49.58;101686.63;5020605;28;20099;-42
2023/05/07 03:58:30;;;;;;;18.83;13.35;;;;;;;21.38;49.50;101688.31;5019723;28;20053;-42
2023/05/07 04:00:56;;;;;;;18.67;13.02;;;;;;;21.36;49.48;101696.56;5020455;28;20049;-42
2023/05/07 04:03:23;;;;;;;20.77;13.55;;;;;;;21.36;49.58;101701.13;5020967;28;20181;-42
2023/05/07 04:05:49;;;;;;;20.58;13.98;;;;;;;21.35;49.78;101708.38;5020741;28;20089;-42
2023/05/07 04:08:16;;;;;;;21.10;13.00;;;;;;;21.35;49.77;101712.94;5021892;28;20426;-42
2023/05/07 04:10:43;;;;;;;18.67;12.60;;;;;;;21.35;49.75;101713.78;5019740;28;20157;-42
2023/05/07 04:13:09;;;;;;;18.15;12.02;;;;;;;21.34;49.50;101719.28;5019087;28;20051;-42
2023/05/07 04:15:36;;;;;;;20.60;13.70;;;;;;;21.33;49.18;101712.22;5019533;28;20059;-42
2023/05/07 04:18:02;;;;;;;19.33;13.27;;;;;;;21.33;49.59;101709.53;5018522;28;20045;-42
2023/05/07 04:20:29;;;;;;;20.40;12.93;;;;;;;21.32;49.50;101703.28;5021622;28;20054;-42
2023/05/07 04:22:56;;;;;;;18.15;12.70;;;;;;;21.31;49.61;101704.25;5019298;28;20083;-43
2023/05/07 04:25:26;;;;;;;18.40;12.10;;;;;;;21.32;49.69;101713.19;5020687;28;20057;-43
2023/05/07 04:27:53;;;;;;;20.88;13.20;;;;;;;21.31;49.68;101717.75;5018883;28;20475;-44
2023/05/07 04:30:22;;;;;;;16.23;11.70;;;;;;;21.31;49.58;101716.91;5020224;28;20057;-44
2023/05/07 04:32:49;;;;;;;17.00;12.13;;;;;;;21.31;49.47;101714.19;5021142;28;20065;-42
2023/05/07 04:35:16;;;;;;;16.70;11.20;;;;;;;21.30;49.28;101717.88;5024026;28;20049;-42
2023/05/07 04:37:42;;;;;;;17.33;11.88;;;;;;;21.30;49.42;101721.41;5024528;28;20345;-42
2023/05/07 04:40:09;;;;;;;17.27;11.88;;;;;;;21.30;49.54;101723.28;5019959;28;20061;-43
2023/05/07 04:42:36;;;;;;;17.73;12.05;;;;;;;21.30;49.28;101717.88;5019586;28;20054;-43
2023/05/07 04:45:04;;;;;;;17.80;12.43;;;;;;;21.29;49.83;101717.03;5021674;28;20064;-42
2023/05/07 04:47:31;;;;;;;17.20;11.50;;;;;;;21.30;49.11;101723.28;5018225;28;20067;-42
2023/05/07 04:49:58;;;;;;;14.80;10.90;;;;;;;21.29;49.34;101722.44;5018313;28;20048;-42
2023/05/07 04:52:24;;;;;;;15.75;10.43;;;;;;;21.30;49.41;101717.88;5018876;28;20041;-42
2023/05/07 04:54:52;;;;;;;15.98;10.70;;;;;;;21.29;49.05;101717.03;5020685;28;20527;-43
2023/05/07 04:57:19;;;;;;;16.10;10.70;;;;;;;21.30;49.88;101717.88;5023216;28;20057;-42
2023/05/07 04:59:46;;;;;;;16.75;11.20;;;;;;;21.30;49.45;101723.28;5021046;28;20156;-43
2023/05/07 05:02:13;;;;;;;16.35;11.00;;;;;;;21.29;49.47;101727.81;5022252;28;20057;-42
2023/05/07 05:04:39;;;;;;;17.45;11.85;;;;;;;21.30;49.31;101723.28;5028371;28;20399;-42
2023/05/07 05:07:06;;;;;;;16.05;10.80;;;;;;;21.29;49.28;101724.28;5022929;28;20049;-42
2023/05/07 05:09:32;;;;;;;14.73;10.70;;;;;;;21.30;49.65;101732.19;5023733;28;20433;-42
2023/05/07 05:11:59;;;;;;;16.95;11.38;;;;;;;21.30;49.65;101731.38;5022848;28;20049;-43
2023/05/07 05:14:26;;;;;;;18.52;10.75;;;;;;;21.30;49.18;101723.28;5023579;28;20045;-42
2023/05/07 05:16:52;;;;;;;15.15;10.95;;;;;;;21.29;49.13;101725.13;5022273;28;20338;-42
2023/05/07 05:19:19;;;;;;;14.50;10.15;;;;;;;21.29;49.50;101725.13;5021651;28;20049;-42
2023/05/07 05:21:45;;;;;;;16.63;11.27;;;;;;;21.29;49.62;101727.81;5021115;28;20046;-41
2023/05/07 05:24:12;;;;;;;16.27;11.07;;;;;;;21.30;49.56;101734.91;5021542;28;20132;-42
2023/05/07 05:26:39;;;;;;;15.20;10.65;;;;;;;21.29;49.37;101727.81;5022286;28;20042;-42
2023/05/07 05:29:06;;;;;;;15.50;10.55;;;;;;;21.30;49.40;101739.44;5022982;28;20053;-43
2023/05/07 05:31:33;;;;;;;15.00;10.32;;;;;;;21.30;49.62;101739.44;5023069;28;20060;-43
2023/05/07 05:34:00;;;;;;;15.43;10.68;;;;;;;21.30;49.06;101742.16;5023686;28;20339;-42
2023/05/07 05:36:26;;;;;;;15.63;10.52;;;;;;;21.29;49.44;101746.69;5028267;28;20056;-43
2023/05/07 05:38:53;;;;;;;14.02;9.60;;;;;;;21.29;49.32;101744.00;5021820;28;20057;-42
2023/05/07 05:41:20;;;;;;;14.52;10.43;;;;;;;21.29;49.25;101752.09;5028515;28;20048;-42
2023/05/07 05:43:47;;;;;;;14.48;10.23;;;;;;;21.28;49.32;101758.50;5023956;28;20053;-42
2023/05/07 05:46:13;;;;;;;15.38;9.82;;;;;;;21.30;49.26;101761.03;5024515;28;20060;-42
2023/05/07 05:48:40;;;;;;;14.10;10.00;;;;;;;21.30;49.61;101755.63;5020353;28;20461;-43
2023/05/07 05:51:06;;;;;;;13.82;10.10;;;;;;;21.29;49.51;101753.94;5017608;28;20053;-43
2023/05/07 05:53:33;;;;;;;14.73;9.32;;;;;;;21.29;49.54;101762.88;5019085;28;20449;-42
2023/05/07 05:56:00;;;;;;;15.23;9.68;;;;;;;21.28;49.36;101754.94;5019958;28;20459;-42
2023/05/07 05:58:26;;;;;;;12.90;9.02;;;;;;;21.28;49.12;101765.75;5020302;28;20055;-43
2023/05/07 06:00:53;;;;;;;13.82;9.63;;;;;;;21.28;49.52;101758.50;5021135;28;20360;-44
2023/05/07 06:03:20;;;;;;;14.90;9.95;;;;;;;21.28;49.50;101771.13;5016320;28;20049;-43
2023/05/07 06:05:46;;;;;;;12.00;8.73;;;;;;;21.26;49.06;101760.47;5020682;28;20050;-43
2023/05/07 06:08:13;;;;;;;13.73;9.52;;;;;;;21.27;49.60;101778.38;5020493;28;20449;-43
2023/05/07 06:10:40;;;;;;;12.93;9.13;;;;;;;21.28;49.47;101776.53;5021754;28;20059;-43
2023/05/07 06:13:06;;;;;;;11.98;8.30;;;;;;;21.25;49.25;101774.97;5018692;28;20049;-43
2023/05/07 06:15:33;;;;;;;12.73;8.73;;;;;;;21.27;49.06;101772.13;5022289;28;20077;-42
2023/05/07 06:17:59;;;;;;;14.15;9.57;;;;;;;21.25;48.99;101780.34;5027291;28;20050;-42
2023/05/07 06:20:26;;;;;;;13.00;9.35;;;;;;;21.26;49.42;101790.13;5026261;28;20353;-43
2023/05/07 06:22:53;;;;;;;13.93;9.18;;;;;;;21.27;49.20;101791.84;5025807;28;20053;-42
2023/05/07 06:25:19;;;;;;;13.48;9.43;;;;;;;21.25;49.06;101793.84;5021890;28;20104;-42
2023/05/07 06:27:46;;;;;;;13.68;9.63;;;;;;;21.27;49.12;101797.25;5021255;28;20517;-42
2023/05/07 06:30:13;;;;;;;11.38;8.00;;;;;;;21.27;49.56;101799.09;5021028;28;20064;-42
2023/05/07 06:32:40;;;;;;;12.13;8.18;;;;;;;21.27;49.54;101793.72;5026116;28;20058;-42
2023/05/07 06:35:07;;;;;;;13.35;9.02;;;;;;;21.26;49.06;101800.06;5023886;28;20053;-42
2023/05/07 06:37:34;;;;;;;11.88;8.27;;;;;;;21.25;49.67;101796.53;5021591;28;20064;-42
2023/05/07 06:40:01;;;;;;;12.27;8.48;;;;;;;21.27;49.38;101797.25;5021236;28;20050;-42
2023/05/07 06:42:27;;;;;;;11.80;8.48;;;;;;;21.27;49.01;101801.81;5022507;28;20056;-42
2023/05/07 06:44:54;;;;;;;11.73;8.13;;;;;;;21.27;49.43;101807.19;5023232;28;20426;-42
2023/05/07 06:47:21;;;;;;;11.98;8.13;;;;;;;21.27;49.35;101801.81;5025311;28;20045;-43
2023/05/07 06:49:48;;;;;;;11.48;8.23;;;;;;;21.26;49.20;101800.06;5023398;28;20055;-42
2023/05/07 06:52:14;;;;;;;11.95;8.18;;;;;;;21.28;49.33;101803.50;5023552;28;20370;-42
2023/05/07 06:54:41;;;;;;;12.02;8.43;;;;;;;21.25;49.12;101801.94;5024457;28;20053;-42
2023/05/07 06:57:07;;;;;;;12.88;8.68;;;;;;;21.27;49.31;101801.81;5023137;28;20341;-42
2023/05/07 06:59:34;;;;;;;11.18;7.88;;;;;;;21.27;49.26;101799.09;5022963;28;20045;-42
2023/05/07 07:02:00;;;;;;;12.50;8.00;;;;;;;21.26;49.09;101803.63;5022056;28;20045;-43
2023/05/07 07:04:28;;;;;;;12.57;8.13;;;;;;;21.27;49.32;101807.19;5020759;28;20041;-42
2023/05/07 07:06:56;;;;;;;11.43;7.88;;;;;;;21.28;49.22;101806.19;5021905;28;20507;-43
2023/05/07 07:09:23;;;;;;;11.60;7.53;;;;;;;21.28;49.69;101807.03;5026194;28;20069;-42
2023/05/07 07:11:49;;;;;;;11.23;7.65;;;;;;;21.28;49.08;101803.50;5025476;28;20057;-43
2023/05/07 07:14:16;;;;;;;10.48;7.00;;;;;;;21.29;48.98;101805.19;5024228;28;20099;-42
2023/05/07 07:16:42;;;;;;;10.55;7.15;;;;;;;21.30;49.32;101806.88;5022228;28;20053;-43
2023/05/07 07:19:09;;;;;;;10.50;7.50;;;;;;;21.31;49.61;101803.19;5024159;28;20064;-43
2023/05/07 07:21:35;;;;;;;10.45;7.47;;;;;;;21.31;49.24;101798.66;5026562;28;20060;-43
2023/05/07 07:24:02;;;;;;;10.57;7.40;;;;;;;21.32;49.23;101802.19;5018590;28;20136;-43
2023/05/07 07:26:29;;;;;;;10.48;7.22;;;;;;;21.32;49.25;101797.66;5020285;28;20417;-42
2023/05/07 07:28:55;;;;;;;11.18;7.82;;;;;;;21.33;49.05;101803.91;5019713;28;20084;-43
2023/05/07 07:31:22;;;;;;;10.23;7.35;;;;;;;21.33;49.26;101804.75;5022194;28;20053;-42
2023/05/07 07:33:50;;;;;;;11.80;7.70;;;;;;;21.35;49.22;101804.63;5021989;28;20117;-43
2023/05/07 07:36:18;;;;;;;10.48;7.35;;;;;;;21.35;49.28;101807.31;5021619;28;20061;-41
2023/05/07 07:38:45;;;;;;;9.50;7.00;;;;;;;21.36;49.25;101807.16;5018632;28;20045;-42
2023/05/07 07:41:11;;;;;;;9.93;7.38;;;;;;;21.38;49.95;101801.59;5000000;28;20052;-45
2023/05/07 07:43:38;;;;;;;14.25;8.20;;;;;;;21.39;49.86;101797.91;4985318;28;21145;-43
2023/05/07 07:46:05;;;;;;;15.10;8.55;;;;;;;21.40;50.34;101799.59;5009405;28;20052;-46
2023/05/07 07:48:31;;;;;;;16.70;9.35;;;;;;;21.42;50.88;101802.97;5006728;28;20127;-44
2023/05/07 07:50:58;;;;;;;16.13;10.25;;;;;;;21.43;51.37;101794.75;5010063;28;20064;-44
2023/05/07 07:53:25;;;;;;;19.27;11.95;;;;;;;21.44;51.50;101795.59;5010746;28;20049;-44
2023/05/07 07:55:51;;;;;;;19.27;11.77;;;;;;;21.47;51.45;101800.69;5008445;28;20223;-43
2023/05/07 07:58:24;;;;;;;21.00;12.48;;;;;;;21.49;51.59;101792.44;5010913;28;20049;-40
2023/05/07 08:00:51;;;;;;;19.60;12.63;;;;;;;21.51;51.78;101795.81;5008685;28;20299;-41
2023/05/07 08:03:17;;;;;;;22.10;13.15;;;;;;;21.52;51.50;101797.53;4980538;28;20076;-41
2023/05/07 08:05:44;;;;;;;23.73;14.57;;;;;;;21.54;52.16;101800.91;4996410;28;20049;-41
2023/05/07 08:08:11;;;;;;;29.77;18.98;;;;;;;21.56;52.70;101809.72;4988106;28;20060;-43
2023/05/07 08:10:39;;;;;;;35.35;20.30;;;;;;;21.57;52.76;101800.63;4986336;28;20049;-36
2023/05/07 08:13:05;;;;;;;38.97;20.27;;;;;;;21.59;52.88;101804.88;4990950;28;20526;-38
2023/05/07 08:15:32;;;;;;;36.45;22.08;;;;;;;21.60;52.62;101800.31;4992194;28;20069;-37
2023/05/07 08:18:00;;;;;;;34.78;21.40;;;;;;;21.61;53.12;101797.44;4990947;28;20054;-35
2023/05/07 08:20:27;;;;;;;30.08;19.65;;;;;;;21.62;53.04;101803.69;4991769;28;20167;-40
2023/05/07 08:22:53;;;;;;;34.80;19.63;;;;;;;21.63;53.41;101806.25;4957794;28;20064;-35
2023/05/07 08:25:20;;;;;;;34.40;20.13;;;;;;;21.64;53.42;101799.84;5012063;28;20186;-41
2023/05/07 08:27:46;;;;;;;32.78;19.48;;;;;;;21.66;53.27;101803.22;5008183;28;20531;-40
2023/05/07 08:30:13;;;;;;;33.30;20.38;;;;;;;21.72;53.18;101800.94;5015541;28;20365;-36
2023/05/07 08:32:40;;;;;;;34.13;20.15;;;;;;;21.75;53.16;101798.78;5012423;28;20381;-35
2023/05/07 08:35:07;;;;;;;33.20;19.05;;;;;;;21.78;53.11;101811.09;5018133;28;20045;-34
2023/05/07 08:37:34;;;;;;;35.08;16.40;;;;;;;21.82;53.22;101805.22;5020054;28;20460;-36
2023/05/07 08:40:00;;;;;;;34.30;14.48;;;;;;;21.86;52.93;101808.47;5016702;28;20049;-34
2023/05/07 08:42:29;;;;;;;43.33;18.25;;;;;;;21.90;53.08;101813.38;4981141;28;20504;-35
2023/05/07 08:44:57;;;;;;;43.60;18.02;;;;;;;21.92;52.87;101819.50;5029010;28;20056;-40
2023/05/07 08:47:29;;;;;;;49.03;19.13;;;;;;;21.95;52.65;101821.03;5012008;28;20573;-35
2023/05/07 08:49:56;;;;;;;44.83;21.35;;;;;;;21.99;52.11;101810.75;5014495;28;20053;-35
2023/05/07 08:52:23;;;;;;;44.15;20.58;;;;;;;22.00;52.41;101823.28;5013081;28;20046;-35
2023/05/07 08:54:49;;;;;;;44.38;19.20;;;;;;;22.02;52.26;101813.16;5016051;28;20269;-37
2023/05/07 08:57:16;;;;;;;41.72;19.85;;;;;;;22.03;52.16;101826.50;5016168;28;20165;-35
2023/05/07 08:59:43;;;;;;;45.80;20.85;;;;;;;22.04;51.84;101822.81;5015832;28;20057;-35
2023/05/07 09:02:11;;;;;;;42.28;20.42;;;;;;;22.06;52.11;101828.88;4989745;28;20053;-41
2023/05/07 09:04:37;;;;;;;50.65;22.70;;;;;;;22.06;51.94;101831.56;5005790;28;20057;-38
2023/05/07 09:07:05;;;;;;;45.28;22.27;;;;;;;22.08;51.87;101832.28;5015862;28;20144;-39
2023/05/07 09:09:35;;;;;;;40.22;18.95;;;;;;;22.11;51.93;101826.56;5016265;28;20116;-42
2023/05/07 09:12:03;;;;;;;37.10;20.85;;;;;;;22.13;51.96;101831.84;5016792;28;20072;-35
2023/05/07 09:14:33;;;;;;;36.80;19.85;;;;;;;22.15;51.99;101825.28;5015272;28;20092;-38
2023/05/07 09:17:00;;;;;;;36.85;19.77;;;;;;;22.18;51.44;101816.00;5017363;28;20135;-35
2023/05/07 09:19:27;;;;;;;37.08;19.55;;;;;;;22.20;51.53;101822.13;5015804;28;20103;-36
2023/05/07 09:22:05;;;;;;;35.78;19.17;;;;;;;22.23;51.58;101819.09;4976815;28;20061;-36
2023/05/07 09:24:34;;;;;;;40.33;20.75;;;;;;;22.25;51.74;101827.88;5012848;28;20057;-38
2023/05/07 09:27:02;;;;;;;38.80;21.33;;;;;;;22.28;51.40;101824.03;5017336;28;20140;-37
2023/05/07 09:29:29;;;;;;;36.40;19.58;;;;;;;22.30;51.61;101822.00;5014066;28;20069;-37
2023/05/07 09:31:56;;;;;;;32.72;19.33;;;;;;;22.34;51.42;101817.97;5015718;28;20060;-37
2023/05/07 09:34:23;;;;;;;32.60;19.02;;;;;;;22.36;51.34;101819.53;5013232;28;20075;-38
2023/05/07 09:36:49;;;;;;;35.47;18.35;;;;;;;22.41;51.37;101827.16;5013661;28;20113;-38
2023/05/07 09:39:16;;;;;;;34.97;19.55;;;;;;;22.44;51.09;101820.59;5017127;28;20049;-38
2023/05/07 09:41:45;;;;;;;33.78;18.45;;;;;;;22.47;51.29;101823.78;4998635;28;20060;-39
2023/05/07 09:44:13;;;;;;;35.33;18.80;;;;;;;22.53;50.86;101830.44;5003398;28;20059;-42
2023/05/07 09:46:44;;;;;;;30.70;18.20;;;;;;;22.61;50.85;101833.19;5009953;28;20049;-42
2023/05/07 09:49:21;;;;;;;38.10;21.55;;;;;;;22.65;50.87;101832.72;5015701;28;20077;-37
2023/05/07 09:51:50;;;;;;;30.40;17.95;;;;;;;22.72;50.67;101829.38;5011773;28;20111;-40
2023/05/07 09:54:17;;;;;;;32.63;19.15;;;;;;;22.76;50.83;101828.88;5012901;28;20073;-37
2023/05/07 09:56:52;;;;;;;34.47;18.73;;;;;;;22.80;50.28;101824.00;5016790;28;20056;-42
2023/05/07 09:59:20;;;;;;;30.73;18.80;;;;;;;22.82;50.51;101824.69;5010029;28;20482;-42
2023/05/07 10:01:46;;;;;;;30.58;19.30;;;;;;;22.85;50.44;101827.91;5013250;28;20352;-39
2023/05/07 10:04:14;;;;;;;31.52;18.50;;;;;;;22.87;50.18;101823.22;4991409;28;20417;-35
2023/05/07 10:06:42;;;;;;;29.30;18.08;;;;;;;22.92;50.44;101827.31;5011605;28;20050;-38
2023/05/07 10:09:09;;;;;;;27.00;17.73;;;;;;;22.95;50.15;101825.09;5015499;28;20046;-37
2023/05/07 10:11:36;;;;;;;25.63;17.00;;;;;;;22.99;50.07;101826.47;5015863;28;20152;-35
2023/05/07 10:14:05;;;;;;;32.60;18.75;;;;;;;23.00;50.13;101833.59;5013520;28;20049;-34
2023/05/07 10:16:36;;;;;;;31.45;19.00;;;;;;;23.00;49.94;101828.19;5014650;28;20499;-34
2023/05/07 10:19:04;;;;;;;29.95;18.10;;;;;;;23.01;49.87;101834.44;5015196;28;20099;-35
2023/05/07 10:21:35;;;;;;;35.13;19.52;;;;;;;23.02;50.36;101828.00;5018559;28;20059;-37
2023/05/07 10:24:14;;;;;;;26.08;15.63;;;;;;;23.04;50.20;101829.56;4988748;28;20069;-36
2023/05/07 10:26:45;;;;;;;28.38;17.60;;;;;;;23.08;49.85;101828.22;5017002;28;20602;-37
2023/05/07 10:29:29;;;;;;;33.30;18.67;;;;;;;23.10;50.15;101836.16;5010587;28;20049;-41
2023/05/07 10:32:02;;;;;;;35.00;17.95;;;;;;;23.13;50.25;101831.28;5010028;28;20060;-38
2023/05/07 10:34:35;;;;;;;39.85;18.70;;;;;;;23.18;49.83;101836.19;5010716;28;20053;-37
2023/05/07 10:37:03;;;;;;;36.63;19.45;;;;;;;23.22;49.46;101834.84;5012667;28;20053;-41
2023/05/07 10:39:30;;;;;;;35.03;18.45;;;;;;;23.24;49.76;101834.72;5012124;28;20096;-40
2023/05/07 10:42:06;;;;;;;36.78;18.90;;;;;;;23.27;50.05;101837.06;5014519;28;21520;-41
2023/05/07 10:44:33;;;;;;;33.63;18.88;;;;;;;23.31;49.81;101843.84;5016066;28;20065;-40
2023/05/07 10:47:08;;;;;;;32.72;17.30;;;;;;;23.33;50.12;101845.38;5012693;28;20059;-40
2023/05/07 10:49:37;;;;;;;32.53;17.10;;;;;;;23.35;49.54;101828.97;5016652;28;20367;-41
2023/05/07 10:52:18;;;;;;;30.27;17.55;;;;;;;23.34;50.27;101833.53;5012048;28;20345;-41
2023/05/07 10:54:46;;;;;;;30.80;16.30;;;;;;;23.39;50.07;101833.03;5011608;28;20371;-40
2023/05/07 10:57:35;;;;;;;29.35;16.25;;;;;;;23.40;49.75;101834.75;5009534;28;20084;-40
2023/05/07 11:00:03;;;;;;;29.40;15.27;;;;;;;23.43;49.88;101839.81;5011952;28;20077;-40
2023/05/07 11:03:00;;;;;;;27.92;15.25;;;;;;;23.44;49.80;101836.13;4976276;28;20547;-43
2023/05/07 11:05:30;;;;;;;24.80;14.30;;;;;;;23.47;49.97;101845.75;5020512;28;20060;-41
2023/05/07 11:08:01;;;;;;;26.17;13.18;;;;;;;23.47;50.46;101846.59;5010351;28;20049;-40
2023/05/07 11:10:51;;;;;;;26.33;13.98;;;;;;;23.43;50.01;101845.22;5010149;28;20574;-37
2023/05/07 11:13:18;;;;;;;25.02;13.15;;;;;;;23.44;49.96;101836.13;5009261;28;20049;-40